Time;durP1;ratioP1;P1;durP2;ratioP2;P2;SDS_P1;SDS_P2;PMS_P1;PMS_P2;Temp;Humidity;BMP_temperature;BMP_pressure;BME280_temperature;BME280_humidity;BME280_pressure;Samples;Min_cycle;Max_cycle;Signal;HPM_P1;HPM_P2
2020/12/09 00:00:29;;;;;;;34.17;18.60;;;3.90;92.20;;;;;;5066609;28;20563;-69
2020/12/09 00:02:56;;;;;;;33.00;18.90;;;3.80;99.90;;;;;;5085091;28;20448;-69
2020/12/09 00:05:22;;;;;;;32.83;19.17;;;3.90;90.60;;;;;;5080830;28;20541;-69
2020/12/09 00:07:49;;;;;;;31.80;17.70;;;4.10;22.70;;;;;;5079942;28;20555;-69
2020/12/09 00:10:16;;;;;;;31.80;18.80;;;4.10;8.20;;;;;;5076609;28;20530;-69
2020/12/09 00:12:42;;;;;;;34.73;17.90;;;4.10;31.00;;;;;;5087820;28;20949;-69
2020/12/09 00:15:10;;;;;;;24.30;14.70;;;4.20;59.30;;;;;;5076222;28;20449;-69
2020/12/09 00:17:37;;;;;;;35.33;18.03;;;4.20;14.20;;;;;;5082235;28;20466;-69
2020/12/09 00:20:05;;;;;;;34.47;18.50;;;4.30;1.00;;;;;;5075027;28;20478;-69
2020/12/09 00:22:33;;;;;;;25.63;15.53;;;4.00;10.00;;;;;;5074924;28;20457;-69
2020/12/09 00:24:59;;;;;;;28.23;16.37;;;4.00;41.70;;;;;;5078303;28;20516;-69
2020/12/09 00:27:26;;;;;;;29.43;17.00;;;4.20;1.00;;;;;;5084666;28;20476;-69
2020/12/09 00:29:53;;;;;;;32.40;18.77;;;4.20;1.00;;;;;;5071348;28;20544;-70
2020/12/09 00:32:19;;;;;;;35.37;18.83;;;4.10;1.00;;;;;;5072713;28;21006;-69
2020/12/09 00:34:46;;;;;;;30.50;17.43;;;4.10;1.00;;;;;;5078047;28;20445;-69
2020/12/09 00:37:12;;;;;;;33.20;19.47;;;4.00;5.10;;;;;;5089132;28;20912;-70
2020/12/09 00:39:38;;;;;;;31.93;17.80;;;4.10;7.00;;;;;;5076154;28;20513;-70
2020/12/09 00:42:05;;;;;;;34.13;18.97;;;4.10;43.90;;;;;;5080638;28;20527;-70
2020/12/09 00:44:32;;;;;;;29.73;17.97;;;4.00;1.50;;;;;;5084915;28;20519;-69
2020/12/09 00:46:58;;;;;;;33.33;17.67;;;4.10;32.90;;;;;;5071647;28;20467;-70
2020/12/09 00:49:25;;;;;;;29.07;16.67;;;4.10;1.00;;;;;;5070071;28;20992;-70
2020/12/09 00:51:51;;;;;;;28.17;16.67;;;4.20;1.00;;;;;;5078900;28;20891;-69
2020/12/09 00:54:17;;;;;;;28.77;15.70;;;4.20;1.00;;;;;;5088189;28;20452;-69
2020/12/09 00:56:44;;;;;;;29.97;17.20;;;4.30;1.00;;;;;;5075865;28;20548;-70
2020/12/09 00:59:11;;;;;;;38.10;20.93;;;4.30;1.00;;;;;;5073840;28;20809;-69
2020/12/09 01:01:38;;;;;;;32.73;17.23;;;4.30;1.00;;;;;;5073611;28;20904;-69
2020/12/09 01:04:05;;;;;;;33.93;19.80;;;4.30;1.00;;;;;;5083139;28;20448;-69
2020/12/09 01:06:33;;;;;;;30.33;17.77;;;4.20;1.00;;;;;;5077374;28;20539;-69
2020/12/09 01:09:01;;;;;;;31.80;18.63;;;4.40;1.00;;;;;;5069188;28;20866;-69
2020/12/09 01:11:27;;;;;;;31.70;17.97;;;4.50;1.00;;;;;;5082458;28;20529;-69
2020/12/09 01:13:54;;;;;;;33.60;17.37;;;4.40;1.00;;;;;;5078277;28;20990;-69
2020/12/09 01:16:20;;;;;;;30.90;18.67;;;4.30;1.00;;;;;;5080843;28;20472;-69
2020/12/09 01:18:49;;;;;;;37.23;18.77;;;4.30;1.00;;;;;;5079498;28;21284;-70
2020/12/09 01:21:15;;;;;;;29.30;17.77;;;4.40;1.00;;;;;;5074911;28;20513;-69
2020/12/09 01:23:42;;;;;;;29.10;17.17;;;4.40;1.00;;;;;;5079794;28;20484;-70
2020/12/09 01:26:11;;;;;;;30.90;18.30;;;4.40;1.00;;;;;;5084555;28;20531;-70
2020/12/09 01:28:38;;;;;;;34.60;18.13;;;4.30;1.00;;;;;;5083558;28;20453;-69
2020/12/09 01:31:04;;;;;;;30.87;16.97;;;4.20;1.00;;;;;;5089208;28;20480;-69
2020/12/09 01:33:31;;;;;;;30.20;16.80;;;4.30;29.40;;;;;;5081239;28;20894;-69
2020/12/09 01:35:58;;;;;;;31.43;18.73;;;4.20;24.70;;;;;;5075789;28;20460;-71
2020/12/09 01:38:24;;;;;;;29.87;16.90;;;4.30;50.90;;;;;;5076250;28;20807;-69
2020/12/09 01:40:54;;;;;;;32.00;17.23;;;4.30;1.00;;;;;;5079177;28;20918;-69
2020/12/09 01:43:21;;;;;;;34.13;18.33;;;4.40;23.70;;;;;;5084627;28;20540;-70
2020/12/09 01:45:47;;;;;;;34.23;18.10;;;4.30;1.00;;;;;;5084722;28;20448;-70
2020/12/09 01:48:17;;;;;;;28.10;19.17;;;4.10;15.70;;;;;;5072003;28;20532;-69
2020/12/09 01:50:44;;;;;;;34.33;19.27;;;4.40;32.50;;;;;;5076132;28;20488;-70
2020/12/09 01:53:11;;;;;;;34.70;19.50;;;4.40;1.00;;;;;;5088457;28;20546;-70
2020/12/09 01:55:38;;;;;;;30.73;17.40;;;4.30;1.00;;;;;;5074616;28;21017;-69
2020/12/09 01:58:04;;;;;;;32.60;18.50;;;4.30;1.00;;;;;;5078003;28;20519;-70
2020/12/09 02:00:35;;;;;;;32.73;18.03;;;4.30;1.00;;;;;;5074738;28;20524;-69
2020/12/09 02:03:01;;;;;;;33.80;17.80;;;4.40;1.00;;;;;;5089545;28;20452;-71
2020/12/09 02:05:28;;;;;;;33.90;19.10;;;4.50;1.00;;;;;;5084610;28;20473;-70
2020/12/09 02:07:55;;;;;;;29.07;19.63;;;4.60;1.00;;;;;;5081147;28;20547;-70
2020/12/09 02:10:22;;;;;;;30.50;18.03;;;4.60;1.00;;;;;;5082229;28;20467;-71
2020/12/09 02:12:48;;;;;;;37.23;17.97;;;4.50;1.00;;;;;;5089587;28;20472;-70
2020/12/09 02:15:15;;;;;;;34.23;18.23;;;4.50;1.00;;;;;;5077955;28;20455;-69
2020/12/09 02:17:42;;;;;;;29.10;17.80;;;4.60;1.00;;;;;;5085264;28;20912;-70
2020/12/09 02:20:09;;;;;;;33.33;17.13;;;4.60;1.00;;;;;;5080330;28;21036;-70
2020/12/09 02:22:37;;;;;;;36.73;18.20;;;4.60;1.00;;;;;;5077047;28;20452;-69
2020/12/09 02:25:03;;;;;;;31.40;18.33;;;4.70;1.00;;;;;;5080489;28;20806;-70
2020/12/09 02:27:30;;;;;;;35.33;18.50;;;4.60;1.00;;;;;;5089799;28;20528;-69
2020/12/09 02:29:56;;;;;;;30.83;17.60;;;4.60;1.00;;;;;;5077398;28;20449;-69
2020/12/09 02:32:22;;;;;;;27.90;16.57;;;4.60;1.00;;;;;;5073834;28;21033;-70
2020/12/09 02:34:49;;;;;;;36.00;20.47;;;4.60;1.00;;;;;;5082680;28;20540;-70
2020/12/09 02:37:15;;;;;;;33.83;19.57;;;4.60;1.00;;;;;;5089454;28;20536;-69
2020/12/09 02:39:42;;;;;;;33.83;18.80;;;4.60;1.00;;;;;;5083767;28;20489;-68
2020/12/09 02:42:09;;;;;;;32.60;20.90;;;4.60;1.00;;;;;;5084498;28;20894;-69
2020/12/09 02:44:35;;;;;;;38.80;20.50;;;4.50;1.00;;;;;;5084664;28;20442;-69
2020/12/09 02:47:02;;;;;;;34.47;18.87;;;4.60;1.00;;;;;;5074870;28;20534;-69
2020/12/09 02:49:28;;;;;;;31.00;18.20;;;4.80;1.00;;;;;;5076871;28;20536;-68
2020/12/09 02:51:54;;;;;;;32.43;19.50;;;4.60;1.00;;;;;;5078531;28;20552;-69
2020/12/09 02:54:21;;;;;;;34.80;20.30;;;4.70;1.00;;;;;;5078058;28;20882;-68
2020/12/09 02:56:48;;;;;;;35.30;19.60;;;4.80;1.00;;;;;;5076441;28;20445;-69
2020/12/09 02:59:14;;;;;;;33.93;18.43;;;4.80;1.00;;;;;;5080047;28;20900;-69
2020/12/09 03:01:41;;;;;;;32.73;19.23;;;4.70;1.00;;;;;;5070089;28;20468;-69
2020/12/09 03:04:08;;;;;;;35.43;18.83;;;4.80;1.00;;;;;;5080945;28;20909;-69
2020/12/09 03:06:34;;;;;;;30.90;19.40;;;4.70;1.00;;;;;;5077277;28;21081;-69
2020/12/09 03:09:01;;;;;;;40.07;22.30;;;4.60;1.00;;;;;;5081260;28;20481;-69
2020/12/09 03:11:27;;;;;;;33.20;18.00;;;4.50;1.00;;;;;;5087240;28;20466;-68
2020/12/09 03:13:54;;;;;;;34.90;18.73;;;4.70;1.00;;;;;;5077427;28;20449;-68
2020/12/09 03:16:21;;;;;;;33.77;17.90;;;4.70;1.00;;;;;;5082622;28;20449;-69
2020/12/09 03:18:47;;;;;;;32.43;18.47;;;4.80;1.00;;;;;;5080375;28;20486;-69
2020/12/09 03:21:14;;;;;;;34.23;19.17;;;4.80;1.00;;;;;;5074196;28;20528;-69
2020/12/09 03:23:40;;;;;;;32.70;18.93;;;4.70;1.00;;;;;;5073671;28;20536;-69
2020/12/09 03:26:06;;;;;;;37.70;20.37;;;4.70;1.00;;;;;;5085737;28;20449;-68
2020/12/09 03:28:35;;;;;;;34.13;19.20;;;4.70;1.00;;;;;;5078989;28;20468;-69
2020/12/09 03:31:03;;;;;;;32.60;18.13;;;4.70;1.00;;;;;;5073196;28;20473;-69
2020/12/09 03:33:29;;;;;;;31.20;18.17;;;4.70;1.00;;;;;;5075030;28;20532;-68
2020/12/09 03:35:56;;;;;;;34.80;19.47;;;4.60;1.00;;;;;;5074007;28;20448;-69
2020/12/09 03:38:22;;;;;;;32.93;19.40;;;4.70;1.00;;;;;;5086752;28;20447;-68
2020/12/09 03:40:49;;;;;;;31.80;18.73;;;4.80;1.00;;;;;;5077935;28;20560;-69
2020/12/09 03:43:15;;;;;;;33.17;19.27;;;4.70;1.00;;;;;;5081819;28;20442;-69
2020/12/09 03:45:42;;;;;;;35.70;20.10;;;4.70;1.00;;;;;;5077676;28;20438;-69
2020/12/09 03:48:10;;;;;;;34.40;20.57;;;4.70;1.00;;;;;;5073405;28;20452;-69
2020/12/09 03:50:36;;;;;;;35.90;20.17;;;4.70;1.00;;;;;;5069001;28;20895;-69
2020/12/09 03:53:03;;;;;;;33.93;18.77;;;4.50;1.00;;;;;;5078390;28;20462;-69
2020/12/09 03:55:29;;;;;;;35.90;19.10;;;4.40;1.00;;;;;;5075758;28;20576;-69
2020/12/09 03:57:58;;;;;;;36.47;20.00;;;4.50;1.00;;;;;;5077668;28;20441;-69
2020/12/09 04:00:25;;;;;;;35.07;18.90;;;4.60;1.00;;;;;;5074658;28;20499;-69
2020/12/09 04:02:51;;;;;;;33.90;19.80;;;4.70;1.00;;;;;;5084011;28;20524;-68
2020/12/09 04:05:19;;;;;;;33.07;19.37;;;4.70;1.00;;;;;;5072883;28;20446;-68
2020/12/09 04:07:45;;;;;;;31.83;18.60;;;4.70;1.00;;;;;;5078397;28;20524;-68
2020/12/09 04:10:13;;;;;;;32.30;19.47;;;4.60;1.00;;;;;;5087878;28;20527;-69
2020/12/09 04:12:39;;;;;;;31.53;20.03;;;4.70;5.70;;;;;;5088394;28;20447;-70
2020/12/09 04:15:06;;;;;;;32.23;19.23;;;4.70;1.00;;;;;;5073739;28;20454;-69
2020/12/09 04:17:32;;;;;;;33.33;18.47;;;4.60;1.00;;;;;;5075756;28;20544;-69
2020/12/09 04:19:58;;;;;;;33.07;19.03;;;4.60;99.90;;;;;;5078680;28;20482;-70
2020/12/09 04:22:26;;;;;;;36.60;19.40;;;4.60;78.00;;;;;;5075027;28;20551;-68
2020/12/09 04:24:52;;;;;;;34.60;19.23;;;4.60;91.60;;;;;;5063205;28;20538;-68
2020/12/09 04:27:18;;;;;;;36.70;20.63;;;4.50;99.90;;;;;;5085852;28;20527;-68
2020/12/09 04:29:45;;;;;;;34.30;20.80;;;4.50;64.50;;;;;;5079150;28;20535;-68
2020/12/09 04:32:11;;;;;;;36.70;19.00;;;4.60;99.90;;;;;;5075348;28;20535;-70
2020/12/09 04:34:37;;;;;;;32.50;19.57;;;4.60;99.90;;;;;;5076625;28;21086;-71
2020/12/09 04:37:04;;;;;;;32.73;19.70;;;4.60;99.90;;;;;;5087492;28;20436;-70
2020/12/09 04:39:31;;;;;;;32.60;17.90;;;4.50;99.90;;;;;;5070330;28;20477;-68
2020/12/09 04:41:58;;;;;;;39.33;21.47;;;4.60;99.90;;;;;;5078605;28;20448;-70
2020/12/09 04:44:24;;;;;;;39.47;22.17;;;4.60;99.90;;;;;;5070924;28;20817;-70
2020/12/09 04:46:52;;;;;;;33.33;19.77;;;4.60;99.90;;;;;;5086121;28;20444;-70
2020/12/09 04:49:20;;;;;;;32.50;20.07;;;4.50;99.90;;;;;;5075757;28;20528;-70
2020/12/09 04:52:16;;;;;;;35.50;20.80;;;4.50;99.90;;;;;;5081095;28;20546;-71
2020/12/09 04:54:45;;;;;;;31.57;20.97;;;4.60;99.90;;;;;;5079576;28;20454;-70
2020/12/09 04:57:13;;;;;;;35.07;21.27;;;4.60;99.90;;;;;;5073612;28;20541;-69
2020/12/09 04:59:41;;;;;;;33.60;19.17;;;4.50;99.90;;;;;;5076762;28;20985;-70
2020/12/09 05:02:09;;;;;;;34.10;19.53;;;4.50;99.90;;;;;;5079942;28;20472;-70
2020/12/09 05:04:37;;;;;;;34.93;20.23;;;4.40;99.90;;;;;;5069736;28;20864;-70
2020/12/09 05:07:09;;;;;;;56.90;19.20;;;4.40;99.90;;;;;;5076141;28;20873;-70
2020/12/09 05:09:44;;;;;;;38.60;19.87;;;4.60;99.90;;;;;;5082445;28;20439;-69
2020/12/09 05:12:13;;;;;;;35.17;19.73;;;4.80;99.90;;;;;;5083537;28;20432;-70
2020/12/09 05:14:46;;;;;;;38.00;20.53;;;4.90;99.90;;;;;;5075563;28;20459;-70
2020/12/09 05:17:17;;;;;;;31.23;20.33;;;4.60;99.90;;;;;;5073307;28;20477;-70
2020/12/09 05:19:44;;;;;;;31.80;18.93;;;4.50;99.90;;;;;;5072020;28;20480;-69
2020/12/09 05:22:15;;;;;;;32.50;19.37;;;4.50;99.90;;;;;;5074238;28;20875;-69
2020/12/09 05:24:42;;;;;;;31.17;18.40;;;4.40;99.90;;;;;;5079643;28;20787;-69
2020/12/09 05:27:09;;;;;;;35.97;20.43;;;4.30;99.90;;;;;;5084822;28;20519;-69
2020/12/09 05:29:44;;;;;;;30.53;18.10;;;4.20;99.90;;;;;;5077350;28;21009;-69
2020/12/09 05:32:10;;;;;;;31.87;18.27;;;4.30;99.90;;;;;;5072482;28;20424;-71
2020/12/09 05:34:37;;;;;;;29.23;18.00;;;4.30;99.90;;;;;;5066427;28;20461;-69
2020/12/09 05:37:05;;;;;;;34.90;19.80;;;4.30;99.90;;;;;;5076265;28;20925;-69
2020/12/09 05:39:32;;;;;;;30.43;18.43;;;4.10;99.90;;;;;;5080735;28;21095;-69
2020/12/09 05:42:13;;;;;;;33.23;19.47;;;4.20;99.90;;;;;;5080977;28;20448;-69
2020/12/09 05:44:41;;;;;;;34.10;17.80;;;4.20;99.90;;;;;;5082883;28;20439;-68
2020/12/09 05:47:08;;;;;;;35.77;20.33;;;4.10;99.90;;;;;;5084185;28;20964;-68
2020/12/09 05:49:36;;;;;;;36.53;19.00;;;3.90;99.90;;;;;;5075106;28;20441;-68
2020/12/09 05:52:21;;;;;;;32.27;19.37;;;3.90;99.90;;;;;;5074128;28;20934;-73
2020/12/09 05:54:49;;;;;;;31.13;18.60;;;4.00;99.90;;;;;;5083328;28;20430;-70
2020/12/09 05:57:18;;;;;;;33.00;19.60;;;4.30;99.90;;;;;;5073831;28;20451;-70
2020/12/09 05:59:46;;;;;;;32.13;17.43;;;4.30;99.90;;;;;;5080909;28;20833;-69
2020/12/09 06:02:15;;;;;;;30.40;17.60;;;4.30;99.90;;;;;;5087319;28;20495;-69
2020/12/09 06:04:47;;;;;;;34.30;17.70;;;4.20;99.90;;;;;;5086424;28;20428;-68
2020/12/09 06:07:14;;;;;;;30.20;18.63;;;4.10;99.90;;;;;;5075832;28;20477;-68
2020/12/09 06:09:40;;;;;;;34.60;18.27;;;4.30;99.90;;;;;;5084253;28;20547;-68
2020/12/09 06:12:07;;;;;;;30.37;17.60;;;4.40;99.90;;;;;;5088532;28;21008;-68
2020/12/09 06:14:34;;;;;;;31.00;18.10;;;4.50;99.90;;;;;;5074648;28;20921;-68
2020/12/09 06:17:01;;;;;;;29.20;17.03;;;4.50;99.90;;;;;;5080501;28;20516;-68
2020/12/09 06:19:27;;;;;;;29.60;17.57;;;4.50;99.90;;;;;;5085912;28;20511;-69
2020/12/09 06:21:57;;;;;;;34.07;18.70;;;4.50;99.90;;;;;;5074121;28;20536;-71
2020/12/09 06:24:23;;;;;;;30.80;17.33;;;4.50;99.90;;;;;;5082008;28;20523;-71
2020/12/09 06:26:50;;;;;;;28.07;16.03;;;4.30;99.90;;;;;;5072338;28;20876;-72
2020/12/09 06:29:25;;;;;;;29.40;16.67;;;4.50;99.90;;;;;;5088340;28;20850;-71
2020/12/09 06:32:02;;;;;;;25.90;17.27;;;4.50;99.90;;;;;;5073645;28;20789;-71
2020/12/09 06:34:28;;;;;;;28.57;17.37;;;4.50;99.90;;;;;;5078204;28;20527;-71
2020/12/09 06:37:11;;;;;;;26.23;17.03;;;4.50;99.90;;;;;;5086800;28;20529;-71
2020/12/09 06:39:37;;;;;;;26.90;15.13;;;4.40;99.90;;;;;;5071714;28;20488;-72
2020/12/09 06:42:08;;;;;;;28.20;16.87;;;4.20;99.90;;;;;;5082111;28;20436;-72
2020/12/09 06:44:48;;;;;;;24.73;15.97;;;4.20;99.90;;;;;;5083687;28;20860;-72
2020/12/09 06:47:16;;;;;;;27.27;16.70;;;4.30;99.90;;;;;;5072555;28;20448;-72
2020/12/09 06:49:45;;;;;;;31.03;17.30;;;4.40;99.90;;;;;;5079305;28;20465;-72
2020/12/09 06:52:36;;;;;;;28.43;15.70;;;4.40;99.90;;;;;;5087360;28;20809;-72
2020/12/09 06:55:05;;;;;;;27.70;16.73;;;4.40;99.90;;;;;;5071025;28;20449;-71
2020/12/09 06:57:37;;;;;;;27.13;16.87;;;4.30;99.90;;;;;;5072573;28;20449;-72
2020/12/09 07:00:21;;;;;;;28.20;18.03;;;4.30;99.90;;;;;;5073507;28;20465;-71
2020/12/09 07:02:50;;;;;;;29.30;16.03;;;4.20;99.90;;;;;;5075941;28;20441;-72
2020/12/09 07:05:17;;;;;;;27.30;17.60;;;4.10;99.90;;;;;;5072064;28;20457;-71
2020/12/09 07:07:46;;;;;;;24.67;14.20;;;4.20;99.90;;;;;;5071414;28;20509;-72
2020/12/09 07:10:25;;;;;;;31.20;16.57;;;4.10;99.90;;;;;;5071543;28;20536;-72
2020/12/09 07:13:05;;;;;;;28.97;17.20;;;4.30;99.90;;;;;;5069785;28;20453;-72
2020/12/09 07:15:32;;;;;;;26.50;15.90;;;4.40;99.90;;;;;;5069568;28;20441;-72
2020/12/09 07:17:59;;;;;;;27.03;17.63;;;4.50;99.90;;;;;;5069536;28;20531;-71
2020/12/09 07:20:26;;;;;;;24.70;15.53;;;4.30;99.90;;;;;;5068693;28;20502;-70
2020/12/09 07:22:52;;;;;;;26.87;16.50;;;4.10;99.90;;;;;;5073064;28;21287;-71
2020/12/09 07:25:18;;;;;;;29.37;18.60;;;4.10;99.90;;;;;;5072615;28;20456;-71
2020/12/09 07:27:46;;;;;;;26.00;16.83;;;4.30;99.90;;;;;;5071253;28;20919;-71
2020/12/09 07:30:14;;;;;;;31.93;16.67;;;4.10;99.90;;;;;;5070904;28;20453;-71
2020/12/09 07:32:41;;;;;;;31.53;18.40;;;3.90;99.90;;;;;;5072462;28;20480;-71
2020/12/09 07:35:09;;;;;;;28.43;17.70;;;4.00;99.90;;;;;;5071823;28;20957;-72
2020/12/09 07:37:38;;;;;;;24.77;16.63;;;3.90;99.90;;;;;;5073113;28;21027;-72
2020/12/09 07:40:19;;;;;;;27.30;18.03;;;4.50;99.90;;;;;;5074262;28;20470;-72
2020/12/09 07:42:46;;;;;;;28.33;18.10;;;4.30;99.90;;;;;;5074164;28;20960;-72
2020/12/09 07:45:16;;;;;;;29.77;18.70;;;4.10;99.90;;;;;;5078785;28;21016;-72
2020/12/09 07:47:44;;;;;;;28.27;17.47;;;4.30;99.90;;;;;;5074170;28;20521;-76
2020/12/09 07:50:11;;;;;;;32.00;21.13;;;4.20;99.90;;;;;;5083227;28;20530;-72
2020/12/09 07:52:40;;;;;;;33.00;20.17;;;4.20;99.90;;;;;;5075192;28;20502;-72
2020/12/09 07:55:12;;;;;;;29.10;17.77;;;4.10;99.90;;;;;;5077947;28;20513;-71
2020/12/09 07:57:38;;;;;;;30.97;18.80;;;4.10;99.90;;;;;;5076323;28;20434;-71
2020/12/09 08:00:07;;;;;;;25.60;16.57;;;4.20;99.90;;;;;;5078706;28;21056;-71
2020/12/09 08:02:38;;;;;;;30.30;17.50;;;4.30;99.90;;;;;;5073803;28;20526;-71
2020/12/09 08:05:17;;;;;;;30.87;17.40;;;4.20;99.90;;;;;;5085989;28;20442;-71
2020/12/09 08:08:10;;;;;;;36.77;19.27;;;4.10;99.90;;;;;;5081029;28;20437;-71
2020/12/09 08:10:37;;;;;;;32.03;18.60;;;4.20;99.90;;;;;;5080602;28;20732;-71
2020/12/09 08:13:11;;;;;;;28.83;16.83;;;4.10;99.90;;;;;;5066087;28;20453;-69
2020/12/09 08:15:38;;;;;;;29.07;17.73;;;4.30;99.90;;;;;;5071492;28;20448;-68
2020/12/09 08:18:05;;;;;;;33.60;18.90;;;4.40;99.90;;;;;;5077160;28;20540;-69
2020/12/09 08:20:45;;;;;;;28.47;16.90;;;4.50;99.90;;;;;;5071886;28;21038;-69
2020/12/09 08:23:11;;;;;;;31.17;17.43;;;4.50;99.90;;;;;;5071375;28;20460;-72
2020/12/09 08:25:45;;;;;;;27.27;16.80;;;4.70;99.90;;;;;;5080697;28;20527;-69
2020/12/09 08:28:12;;;;;;;30.43;17.80;;;4.50;99.90;;;;;;5073170;28;20496;-69
2020/12/09 08:30:38;;;;;;;32.50;17.77;;;4.40;99.90;;;;;;5070450;28;20550;-69
2020/12/09 08:33:15;;;;;;;30.80;18.23;;;4.60;99.90;;;;;;5077833;28;20536;-68
2020/12/09 08:35:48;;;;;;;30.37;18.07;;;4.60;99.90;;;;;;5081480;28;20436;-69
2020/12/09 08:38:32;;;;;;;32.30;20.20;;;4.70;99.90;;;;;;5076619;28;20479;-70
2020/12/09 08:41:01;;;;;;;29.83;18.77;;;4.80;99.90;;;;;;5069794;28;20552;-69
2020/12/09 08:43:29;;;;;;;28.47;17.70;;;4.70;99.90;;;;;;5079720;28;20529;-69
2020/12/09 08:45:55;;;;;;;27.40;18.43;;;4.70;99.90;;;;;;5081614;28;20441;-69
2020/12/09 08:48:22;;;;;;;28.33;17.63;;;4.70;99.90;;;;;;5078798;28;20936;-69
2020/12/09 08:50:52;;;;;;;30.63;17.30;;;4.80;99.90;;;;;;5079824;28;20469;-69
2020/12/09 08:53:19;;;;;;;24.90;15.87;;;4.70;99.90;;;;;;5086772;28;20876;-69
2020/12/09 08:55:46;;;;;;;29.03;18.10;;;4.70;99.90;;;;;;5080402;28;20438;-69
2020/12/09 08:58:14;;;;;;;30.40;18.87;;;4.70;99.90;;;;;;5079522;28;20534;-69
2020/12/09 09:00:41;;;;;;;25.33;16.23;;;5.00;99.90;;;;;;5070980;28;20580;-69
2020/12/09 09:03:11;;;;;;;28.80;17.23;;;5.20;99.90;;;;;;5075116;28;20436;-70
2020/12/09 09:05:38;;;;;;;25.47;17.13;;;5.10;97.00;;;;;;5067995;28;20454;-70
2020/12/09 09:08:06;;;;;;;33.50;18.03;;;5.00;27.40;;;;;;5073841;28;20476;-69
2020/12/09 09:10:32;;;;;;;27.43;17.90;;;4.90;99.90;;;;;;5070618;28;20442;-69
2020/12/09 09:12:58;;;;;;;27.03;16.40;;;4.60;99.90;;;;;;5072847;28;20515;-69
2020/12/09 09:15:25;;;;;;;32.23;18.70;;;4.60;99.90;;;;;;5069934;28;20441;-69
2020/12/09 09:17:51;;;;;;;32.90;19.70;;;4.70;99.90;;;;;;5072005;28;20518;-69
2020/12/09 09:20:18;;;;;;;33.40;20.03;;;4.60;99.90;;;;;;5070022;28;20579;-69
2020/12/09 09:22:44;;;;;;;30.93;18.57;;;4.70;99.90;;;;;;5069599;28;20466;-72
2020/12/09 09:25:12;;;;;;;29.30;17.73;;;4.80;99.90;;;;;;5077453;28;20452;-72
2020/12/09 09:27:38;;;;;;;29.70;17.67;;;4.80;99.90;;;;;;5074789;28;20488;-71
2020/12/09 09:30:07;;;;;;;31.03;17.50;;;4.70;99.90;;;;;;5070588;28;20476;-71
2020/12/09 09:32:33;;;;;;;31.03;19.10;;;4.70;99.90;;;;;;5076110;28;20524;-71
2020/12/09 09:35:00;;;;;;;31.90;18.77;;;4.70;99.90;;;;;;5080903;28;20941;-71
2020/12/09 09:37:26;;;;;;;33.93;19.20;;;4.80;99.90;;;;;;5089761;28;20452;-72
2020/12/09 09:39:53;;;;;;;29.90;19.17;;;4.90;99.90;;;;;;5073760;28;20516;-72
2020/12/09 09:42:20;;;;;;;30.70;18.97;;;4.90;99.90;;;;;;5081876;28;20506;-71
2020/12/09 09:44:47;;;;;;;30.03;19.30;;;4.80;99.90;;;;;;5073543;28;20453;-72
2020/12/09 09:47:14;;;;;;;32.90;19.37;;;4.80;99.90;;;;;;5069831;28;20529;-72
2020/12/09 09:49:41;;;;;;;32.97;18.73;;;4.80;99.90;;;;;;5072529;28;20548;-71
2020/12/09 09:52:07;;;;;;;30.03;18.20;;;4.90;99.90;;;;;;5074547;28;20560;-72
2020/12/09 09:54:35;;;;;;;30.23;19.50;;;4.80;99.90;;;;;;5074569;28;20866;-72
2020/12/09 09:57:01;;;;;;;30.70;19.50;;;5.00;99.90;;;;;;5074063;28;20437;-72
2020/12/09 09:59:29;;;;;;;29.50;18.70;;;5.10;99.90;;;;;;5073114;28;20449;-72
2020/12/09 10:01:55;;;;;;;37.53;21.63;;;4.90;99.90;;;;;;5097655;28;20468;-71
2020/12/09 10:04:22;;;;;;;32.03;19.77;;;4.90;99.90;;;;;;5103019;28;20586;-71
2020/12/09 10:06:50;;;;;;;32.00;19.00;;;4.80;99.90;;;;;;5088100;28;20449;-71
2020/12/09 10:09:17;;;;;;;34.70;19.57;;;5.00;99.90;;;;;;5089099;28;20471;-71
2020/12/09 10:11:44;;;;;;;33.83;20.40;;;4.80;99.90;;;;;;5083713;28;20802;-72
2020/12/09 10:14:11;;;;;;;36.00;20.70;;;4.80;99.90;;;;;;5075705;28;20452;-72
2020/12/09 10:16:39;;;;;;;32.13;19.97;;;4.80;99.90;;;;;;5076248;28;20681;-71
2020/12/09 10:19:06;;;;;;;36.67;21.03;;;4.70;99.90;;;;;;5077514;28;20448;-71
2020/12/09 10:21:34;;;;;;;34.43;19.93;;;4.70;99.90;;;;;;5067324;28;20827;-71
2020/12/09 10:24:02;;;;;;;30.13;21.07;;;4.60;99.90;;;;;;5079291;28;20827;-71
2020/12/09 10:26:29;;;;;;;33.97;19.37;;;4.60;99.90;;;;;;5076741;28;20535;-72
2020/12/09 10:29:00;;;;;;;31.17;19.70;;;4.70;99.90;;;;;;5075762;28;20548;-72
2020/12/09 10:31:32;;;;;;;34.63;18.60;;;5.90;99.90;;;;;;5071195;28;20452;-72
2020/12/09 10:34:00;;;;;;;34.03;21.00;;;6.50;99.90;;;;;;5074182;28;20847;-72
2020/12/09 10:36:26;;;;;;;30.33;19.70;;;6.00;1.00;;;;;;5075457;28;20477;-70
2020/12/09 10:38:53;;;;;;;32.30;20.47;;;5.40;26.70;;;;;;5073009;28;20449;-76
2020/12/09 10:41:20;;;;;;;31.90;19.97;;;5.60;99.90;;;;;;5077912;28;20505;-75
2020/12/09 10:43:49;;;;;;;35.23;20.37;;;5.50;99.90;;;;;;5073675;28;20530;-68
2020/12/09 10:46:15;;;;;;;28.23;18.07;;;5.40;99.90;;;;;;5078246;28;20469;-72
2020/12/09 10:48:42;;;;;;;33.13;17.20;;;6.60;99.90;;;;;;5077370;28;20444;-69
2020/12/09 10:51:09;;;;;;;32.40;19.90;;;7.90;1.00;;;;;;5078527;28;20493;-72
2020/12/09 10:53:35;;;;;;;32.10;19.10;;;7.50;1.00;;;;;;5075814;28;20967;-70
2020/12/09 10:56:02;;;;;;;30.93;19.63;;;6.60;99.90;;;;;;5072382;28;20552;-72
2020/12/09 10:58:29;;;;;;;29.70;17.67;;;6.00;1.00;;;;;;5078403;28;20485;-72
2020/12/09 11:00:56;;;;;;;27.00;18.60;;;5.70;1.00;;;;;;5071141;28;20579;-71
2020/12/09 11:03:23;;;;;;;30.20;17.60;;;5.50;1.00;;;;;;5072102;28;20533;-74
2020/12/09 11:05:50;;;;;;;27.03;17.23;;;5.60;21.80;;;;;;5069880;28;20544;-72
2020/12/09 11:08:17;;;;;;;40.80;21.13;;;5.60;29.40;;;;;;5073474;28;20520;-72
2020/12/09 11:10:44;;;;;;;28.07;17.57;;;5.30;99.90;;;;;;5073920;28;20488;-71
2020/12/09 11:13:10;;;;;;;26.27;16.87;;;5.30;99.90;;;;;;5073008;28;20624;-72
2020/12/09 11:15:37;;;;;;;25.10;17.00;;;5.30;99.90;;;;;;5071599;28;20584;-72
2020/12/09 11:18:03;;;;;;;30.77;19.43;;;5.00;99.90;;;;;;5071924;28;20454;-74
2020/12/09 11:20:30;;;;;;;30.23;18.97;;;5.10;99.90;;;;;;5071517;28;20576;-71
2020/12/09 11:22:56;;;;;;;35.63;19.53;;;5.50;99.90;;;;;;5072991;28;20445;-74
2020/12/09 11:25:24;;;;;;;28.27;18.20;;;5.30;99.90;;;;;;5078243;28;20502;-74
2020/12/09 11:27:51;;;;;;;29.60;18.50;;;5.30;99.90;;;;;;5080923;28;20540;-74
2020/12/09 11:30:17;;;;;;;29.50;19.63;;;5.30;99.90;;;;;;5077178;28;20488;-74
2020/12/09 11:32:44;;;;;;;34.03;20.53;;;5.20;99.90;;;;;;5081183;28;20527;-73
2020/12/09 11:35:10;;;;;;;30.00;19.50;;;5.30;99.90;;;;;;5074523;28;20442;-73
2020/12/09 11:37:37;;;;;;;35.60;19.80;;;5.40;99.90;;;;;;5071343;28;20480;-73
2020/12/09 11:40:04;;;;;;;34.63;19.50;;;5.20;99.90;;;;;;5072169;28;20562;-73
2020/12/09 11:42:36;;;;;;;29.30;18.67;;;5.20;99.90;;;;;;5069791;28;20449;-73
2020/12/09 11:45:03;;;;;;;31.70;18.93;;;5.40;99.90;;;;;;5072131;28;20475;-73
2020/12/09 11:47:29;;;;;;;30.37;17.87;;;5.40;99.90;;;;;;5068754;28;21002;-74
2020/12/09 11:49:55;;;;;;;27.97;17.90;;;5.30;99.90;;;;;;5074832;28;20887;-74
2020/12/09 11:52:22;;;;;;;37.60;17.60;;;5.30;99.90;;;;;;5075763;28;20493;-73
2020/12/09 11:54:48;;;;;;;27.33;17.00;;;5.20;99.90;;;;;;5071187;28;20541;-73
2020/12/09 11:57:15;;;;;;;31.30;18.67;;;4.80;99.90;;;;;;5071847;28;20465;-74
2020/12/09 11:59:42;;;;;;;30.67;17.40;;;5.10;99.90;;;;;;5069134;28;20481;-71
2020/12/09 12:02:08;;;;;;;29.07;17.43;;;6.70;99.90;;;;;;5080019;28;20476;-70
2020/12/09 12:04:35;;;;;;;28.10;17.37;;;7.60;99.90;;;;;;5071236;28;20544;-73
2020/12/09 12:07:01;;;;;;;38.67;18.57;;;7.40;1.00;;;;;;5077096;28;21013;-73
2020/12/09 12:09:28;;;;;;;32.13;20.03;;;7.30;1.00;;;;;;5078499;28;20881;-73
2020/12/09 12:11:54;;;;;;;34.90;16.37;;;6.90;1.00;;;;;;5076838;28;20458;-73
2020/12/09 12:14:21;;;;;;;31.00;17.33;;;5.90;1.00;;;;;;5070081;28;20553;-74
2020/12/09 12:16:48;;;;;;;34.97;19.33;;;6.80;99.90;;;;;;5078598;28;20544;-73
2020/12/09 12:19:17;;;;;;;30.57;17.70;;;7.20;99.90;;;;;;5083364;28;20940;-74
2020/12/09 12:21:43;;;;;;;31.73;17.13;;;7.30;99.90;;;;;;5070922;28;20497;-71
2020/12/09 12:24:10;;;;;;;30.60;17.10;;;7.10;1.00;;;;;;5075694;28;20897;-73
2020/12/09 12:26:36;;;;;;;33.97;20.03;;;7.60;1.00;;;;;;5075031;28;20457;-73
2020/12/09 12:29:03;;;;;;;29.70;18.03;;;7.90;99.90;;;;;;5076305;28;20476;-73
2020/12/09 12:31:29;;;;;;;29.37;17.00;;;7.70;99.90;;;;;;5069258;28;20476;-72
2020/12/09 12:33:56;;;;;;;33.57;19.93;;;7.40;1.00;;;;;;5075583;28;20951;-74
2020/12/09 12:36:23;;;;;;;30.70;18.67;;;7.30;1.00;;;;;;5076576;28;20449;-72
2020/12/09 12:38:49;;;;;;;33.53;19.47;;;7.20;56.20;;;;;;5071946;28;20478;-72
2020/12/09 12:41:17;;;;;;;32.40;17.97;;;7.60;1.00;;;;;;5070956;28;20568;-72
2020/12/09 12:43:43;;;;;;;27.20;15.10;;;7.50;1.00;;;;;;5081574;28;20444;-71